createdAt,value
2019-06-01T00:02:18.392Z,12.67
2019-06-01T00:04:49.395Z,13.60
2019-06-01T00:07:19.906Z,13.80
2019-06-01T00:09:49.953Z,13.60
2019-06-01T00:12:20.020Z,12.93
2019-06-01T00:14:50.080Z,13.67
2019-06-01T00:17:20.115Z,12.73
2019-06-01T00:19:50.329Z,14.17
2019-06-01T00:22:20.683Z,15.53
2019-06-01T00:24:50.539Z,14.43
2019-06-01T00:27:20.742Z,14.67
2019-06-01T00:29:50.801Z,14.43
2019-06-01T00:32:20.730Z,14.97
2019-06-01T00:34:51.846Z,12.57
2019-06-01T00:37:22.173Z,15.07
2019-06-01T00:39:52.324Z,12.57
2019-06-01T00:42:22.159Z,14.40
2019-06-01T00:44:52.569Z,16.20
2019-06-01T00:47:22.638Z,14.20
2019-06-01T00:49:53.101Z,13.53
2019-06-01T00:52:23.417Z,13.40
2019-06-01T00:54:53.818Z,15.43
2019-06-01T00:57:23.739Z,15.57
2019-06-01T00:59:55.092Z,16.37
2019-06-01T01:02:25.497Z,15.33
2019-06-01T01:05:13.220Z,14.90
2019-06-01T01:07:44.385Z,16.20
2019-06-01T01:10:15.706Z,15.50
2019-06-01T01:13:07.575Z,12.63
2019-06-01T01:15:38.060Z,15.20
2019-06-01T01:18:09.006Z,16.07
2019-06-01T01:20:39.760Z,14.57
2019-06-01T01:23:09.690Z,13.10
2019-06-01T01:25:39.659Z,15.00
2019-06-01T01:28:09.504Z,13.77
2019-06-01T01:30:39.940Z,13.90
2019-06-01T01:33:10.374Z,15.53
2019-06-01T01:35:40.269Z,16.03
2019-06-01T01:41:52.173Z,10.33
2019-06-01T01:44:22.411Z,13.67
2019-06-01T01:46:52.742Z,15.53
2019-06-01T01:49:22.766Z,13.93
2019-06-01T01:51:52.906Z,14.63
2019-06-01T01:54:23.163Z,14.73
2019-06-01T01:56:54.039Z,13.40
2019-06-01T01:59:24.346Z,15.10
2019-06-01T02:01:54.681Z,15.90
2019-06-01T02:04:24.585Z,15.43
2019-06-01T02:06:55.886Z,13.73
2019-06-01T02:09:26.209Z,14.97
2019-06-01T02:11:57.576Z,13.63
2019-06-01T02:14:27.973Z,14.17
2019-06-01T02:16:58.133Z,9.13
2019-06-01T02:19:28.350Z,13.27
2019-06-01T02:21:58.551Z,13.77
2019-06-01T02:24:28.444Z,15.03
2019-06-01T02:26:59.364Z,14.70
2019-06-01T02:29:29.389Z,15.93
2019-06-01T02:32:01.508Z,13.13
2019-06-01T02:34:31.141Z,13.67
2019-06-01T02:37:02.376Z,11.67
2019-06-01T02:39:32.550Z,12.83
2019-06-01T02:42:03.483Z,11.87
2019-06-01T02:44:34.145Z,14.53
2019-06-01T02:47:06.160Z,11.37
2019-06-01T02:49:35.947Z,14.47
2019-06-01T02:52:06.607Z,13.03
2019-06-01T02:54:36.812Z,12.33
2019-06-01T02:57:06.733Z,13.37
2019-06-01T02:59:36.635Z,15.47
2019-06-01T03:02:11.914Z,14.70
2019-06-01T03:04:38.549Z,15.67
2019-06-01T03:07:12.270Z,14.23
2019-06-01T03:09:42.372Z,15.87
2019-06-01T03:12:15.592Z,13.67
2019-06-01T03:14:47.485Z,14.50
2019-06-01T03:17:20.524Z,14.50
2019-06-01T03:19:53.059Z,12.80
2019-06-01T03:22:26.266Z,17.70
2019-06-01T03:24:59.791Z,14.17
2019-06-01T03:27:33.205Z,17.37
2019-06-01T03:30:08.943Z,14.80
2019-06-01T03:32:37.838Z,13.83
2019-06-01T03:35:08.839Z,16.07
2019-06-01T03:37:38.869Z,16.30
2019-06-01T03:40:15.628Z,16.23
2019-06-01T03:42:41.742Z,16.80
2019-06-01T03:45:12.652Z,14.27
2019-06-01T03:47:43.055Z,14.33
2019-06-01T03:50:13.322Z,14.43
2019-06-01T03:52:54.746Z,14.23
2019-06-01T03:55:24.760Z,13.03
2019-06-01T03:57:54.729Z,15.50
2019-06-01T04:00:24.642Z,15.43
2019-06-01T04:02:54.620Z,14.60
2019-06-01T04:05:24.581Z,13.53
2019-06-01T04:07:54.558Z,12.73
2019-06-01T04:10:24.630Z,16.07
2019-06-01T04:12:54.616Z,15.53
2019-06-01T04:15:24.521Z,14.63
2019-06-01T04:17:54.552Z,9.63
2019-06-01T04:20:24.625Z,13.20
2019-06-01T04:22:54.514Z,12.63
2019-06-01T04:25:24.536Z,10.50
2019-06-01T04:27:54.675Z,15.57
2019-06-01T04:30:27.328Z,14.43
2019-06-01T04:32:57.393Z,13.97
2019-06-01T04:35:27.432Z,14.83
2019-06-01T04:37:57.682Z,12.93
2019-06-01T04:40:27.566Z,13.33
2019-06-01T04:42:57.466Z,10.20
2019-06-01T04:45:27.607Z,13.47
2019-06-01T04:48:06.642Z,14.83
2019-06-01T04:50:36.527Z,12.87
2019-06-01T04:53:06.812Z,13.47
2019-06-01T04:55:37.050Z,13.87
2019-06-01T04:58:07.018Z,16.00
2019-06-01T05:00:36.912Z,13.60
2019-06-01T05:03:08.536Z,10.70
2019-06-01T05:05:38.406Z,13.93
2019-06-01T05:08:09.385Z,13.33
2019-06-01T05:10:39.457Z,11.77
2019-06-01T05:13:09.454Z,11.93
2019-06-01T05:15:39.478Z,10.17
2019-06-01T05:18:10.056Z,12.93
2019-06-01T05:20:40.276Z,11.13
2019-06-01T05:23:10.600Z,11.17
2019-06-01T05:25:40.773Z,11.30
2019-06-01T05:28:11.219Z,9.77
2019-06-01T05:30:41.192Z,11.60
2019-06-01T05:33:26.599Z,8.33
2019-06-01T05:35:43.003Z,9.13
2019-06-01T05:38:14.226Z,9.33
2019-06-01T05:40:44.513Z,10.63
2019-06-01T05:43:17.536Z,13.70
2019-06-01T05:45:46.162Z,9.83
2019-06-01T05:48:25.023Z,8.73
2019-06-01T05:50:55.572Z,14.77
2019-06-01T05:53:27.280Z,9.97
2019-06-01T05:55:58.437Z,9.20
2019-06-01T05:58:29.443Z,9.07
2019-06-01T06:01:00.737Z,8.43
2019-06-01T06:03:39.931Z,9.40
2019-06-01T06:06:03.152Z,8.50
2019-06-01T06:08:36.429Z,11.63
2019-06-01T06:11:06.335Z,11.47
2019-06-01T06:13:36.256Z,9.33
2019-06-01T06:16:06.275Z,9.10
2019-06-01T06:18:36.167Z,10.97
2019-06-01T06:21:06.228Z,7.03
2019-06-01T06:23:36.622Z,10.17
2019-06-01T06:26:06.656Z,10.07
2019-06-01T06:28:36.536Z,9.47
2019-06-01T06:31:06.312Z,7.97
2019-06-01T06:33:36.931Z,7.80
2019-06-01T06:36:07.106Z,6.37
2019-06-01T06:38:37.007Z,7.43
2019-06-01T06:41:06.820Z,6.93
2019-06-01T06:43:36.760Z,7.93
2019-06-01T06:46:10.842Z,8.07
2019-06-01T06:48:40.903Z,6.53
2019-06-01T06:51:11.148Z,7.30
2019-06-01T06:53:41.686Z,8.20
2019-06-01T06:56:15.639Z,7.90
2019-06-01T06:58:45.766Z,7.80
2019-06-01T07:01:16.960Z,8.63
2019-06-01T07:03:48.694Z,10.13
2019-06-01T07:06:19.499Z,8.60
2019-06-01T07:08:49.553Z,8.60
2019-06-01T07:11:19.665Z,8.00
2019-06-01T07:13:49.557Z,8.40
2019-06-01T07:16:19.432Z,9.47
2019-06-01T07:18:49.290Z,8.93
2019-06-01T07:21:19.570Z,8.97
2019-06-01T07:23:49.631Z,9.37
2019-06-01T07:26:19.911Z,8.37
2019-06-01T07:28:50.137Z,9.93
2019-06-01T07:31:20.168Z,9.20
2019-06-01T07:33:50.135Z,9.03
2019-06-01T07:36:20.873Z,9.80
2019-06-01T07:38:50.954Z,9.03
2019-06-01T07:41:20.812Z,8.53
2019-06-01T07:43:50.639Z,8.23
2019-06-01T07:46:20.800Z,8.03
2019-06-01T07:48:50.896Z,8.00
2019-06-01T07:51:21.092Z,9.27
2019-06-01T07:53:51.391Z,8.07
2019-06-01T07:56:22.602Z,8.43
2019-06-01T07:58:52.864Z,7.97
2019-06-01T08:01:24.580Z,8.00
2019-06-01T08:03:54.356Z,7.83
2019-06-01T08:06:26.061Z,7.50
2019-06-01T08:08:55.804Z,7.30
2019-06-01T08:11:29.355Z,6.07
2019-06-01T08:13:57.397Z,6.57
2019-06-01T08:16:27.903Z,6.50
2019-06-01T08:18:58.122Z,5.67
2019-06-01T08:21:28.219Z,6.00
2019-06-01T08:23:58.075Z,5.63
2019-06-01T08:26:28.549Z,6.37
2019-06-01T08:28:58.747Z,6.53
2019-06-01T08:31:28.760Z,6.43
2019-06-01T08:33:58.490Z,7.10
2019-06-01T08:36:29.497Z,6.20
2019-06-01T08:38:59.784Z,7.33
2019-06-01T08:41:29.932Z,7.80
2019-06-01T08:44:00.079Z,6.70
2019-06-01T08:46:29.935Z,8.47
2019-06-01T08:48:59.838Z,7.93
2019-06-01T08:51:29.943Z,7.40
2019-06-01T08:53:59.914Z,6.90
2019-06-01T08:56:30.261Z,8.47
2019-06-01T08:59:00.627Z,8.20
2019-06-01T09:01:30.616Z,7.97
2019-06-01T09:04:00.447Z,7.73
2019-06-01T09:06:30.966Z,8.90
2019-06-01T09:09:01.068Z,6.67
2019-06-01T09:15:12.727Z,6.70
2019-06-01T09:17:43.427Z,9.83
2019-06-01T09:20:13.543Z,8.30
2019-06-01T09:22:43.744Z,7.53
2019-06-01T09:25:13.751Z,7.77
2019-06-01T09:27:43.700Z,7.50
2019-06-01T09:30:14.199Z,9.43
2019-06-01T09:32:44.044Z,10.43
2019-06-01T09:35:14.157Z,7.53
2019-06-01T09:37:54.194Z,10.07
2019-06-01T09:40:24.445Z,7.50
2019-06-01T09:42:54.379Z,8.77
2019-06-01T09:45:24.310Z,7.23
2019-06-01T09:47:54.337Z,7.77
2019-06-01T09:50:24.248Z,7.10
2019-06-01T09:52:54.176Z,7.30
2019-06-01T09:55:24.165Z,6.93
2019-06-01T09:57:54.154Z,7.30
2019-06-01T10:00:24.368Z,7.57
2019-06-01T10:02:54.364Z,8.07
2019-06-01T10:05:24.241Z,8.47
2019-06-01T10:07:54.183Z,6.70
2019-06-01T10:10:24.091Z,7.00
2019-06-01T10:12:54.005Z,7.27
2019-06-01T10:15:25.994Z,7.33
2019-06-01T10:17:55.871Z,6.90
2019-06-01T10:20:25.828Z,6.83
2019-06-01T10:22:55.780Z,5.40
2019-06-01T10:25:25.682Z,6.07
2019-06-01T10:27:55.558Z,6.07
2019-06-01T10:30:25.500Z,7.13
2019-06-01T10:32:55.486Z,6.50
2019-06-01T10:35:25.634Z,5.90
2019-06-01T10:37:55.491Z,6.00
2019-06-01T10:40:25.266Z,6.03
2019-06-01T10:42:55.200Z,6.33
2019-06-01T10:45:25.145Z,5.27
2019-06-01T10:47:55.276Z,5.50
2019-06-01T10:50:25.220Z,5.90
2019-06-01T10:52:55.166Z,5.50
2019-06-01T10:55:24.960Z,5.67
2019-06-01T10:57:54.966Z,5.63
2019-06-01T11:00:37.602Z,5.30
2019-06-01T11:02:56.533Z,5.70
2019-06-01T11:05:27.787Z,5.87
2019-06-01T11:07:57.624Z,5.87
2019-06-01T11:10:27.544Z,5.97
2019-06-01T11:12:57.489Z,5.37
2019-06-01T11:15:27.314Z,5.43
2019-06-01T11:17:57.286Z,6.63
2019-06-01T11:20:27.264Z,5.40
2019-06-01T11:22:57.158Z,5.37
2019-06-01T11:25:27.048Z,5.93
2019-06-01T11:27:56.944Z,5.60
2019-06-01T11:30:26.873Z,6.10
2019-06-01T11:32:56.873Z,4.97
2019-06-01T11:35:26.774Z,5.60
2019-06-01T11:37:56.658Z,6.00
2019-06-01T11:40:26.586Z,5.47
2019-06-01T11:42:56.407Z,5.03
2019-06-01T11:45:26.422Z,5.30
2019-06-01T11:47:56.289Z,4.90
2019-06-01T11:50:26.189Z,5.37
2019-06-01T11:52:56.140Z,6.30
2019-06-01T11:55:26.106Z,4.83
2019-06-01T11:57:56.025Z,6.10
2019-06-01T12:00:26.535Z,6.07
2019-06-01T12:02:56.519Z,5.47
2019-06-01T12:05:26.355Z,5.20
2019-06-01T12:07:56.371Z,5.83
2019-06-01T12:10:26.255Z,5.40
2019-06-01T12:12:56.141Z,4.37
2019-06-01T12:15:26.961Z,5.33
2019-06-01T12:17:57.527Z,4.50
2019-06-01T12:20:27.408Z,4.87
2019-06-01T12:22:57.203Z,4.90
2019-06-01T12:25:27.099Z,4.87
2019-06-01T12:27:57.113Z,4.40
2019-06-01T12:30:26.991Z,5.83
2019-06-01T12:32:56.945Z,5.27
2019-06-01T12:35:26.958Z,5.17
2019-06-01T12:38:05.893Z,5.33
2019-06-01T12:40:28.308Z,5.40
2019-06-01T12:42:58.244Z,4.90
2019-06-01T12:45:28.163Z,4.40
2019-06-01T12:47:58.688Z,4.53
2019-06-01T12:50:29.055Z,5.47
2019-06-01T12:52:59.015Z,5.47
2019-06-01T12:55:28.979Z,4.30
2019-06-01T12:57:58.949Z,4.67
2019-06-01T13:00:28.925Z,5.30
2019-06-01T13:03:06.903Z,5.70
2019-06-01T13:05:30.945Z,4.73
2019-06-01T13:08:02.904Z,5.00
2019-06-01T13:10:32.603Z,5.33
2019-06-01T13:13:02.460Z,4.43
2019-06-01T13:15:32.365Z,4.97
2019-06-01T13:18:02.230Z,4.17
2019-06-01T13:20:32.047Z,4.87
2019-06-01T13:23:02.031Z,5.07
2019-06-01T13:25:31.958Z,4.13
2019-06-01T13:28:01.794Z,4.70
2019-06-01T13:30:31.632Z,4.83
2019-06-01T13:33:01.425Z,5.33
2019-06-01T13:35:31.327Z,4.60
2019-06-01T13:38:11.939Z,4.27
2019-06-01T13:40:32.795Z,5.27
2019-06-01T13:43:02.649Z,4.50
2019-06-01T13:45:32.898Z,4.97
2019-06-01T13:48:02.983Z,6.53
2019-06-01T13:50:32.964Z,5.93
2019-06-01T13:53:02.812Z,5.23
2019-06-01T13:55:32.637Z,4.80
2019-06-01T13:58:02.511Z,5.70
2019-06-01T14:00:32.567Z,5.37
2019-06-01T14:03:02.976Z,5.13
2019-06-01T14:05:32.822Z,4.77
2019-06-01T14:08:27.944Z,8.00
2019-06-01T14:11:08.958Z,4.83
2019-06-01T14:13:55.974Z,6.27
2019-06-01T14:16:42.742Z,6.27
2019-06-01T14:19:27.475Z,5.23
2019-06-01T14:22:04.431Z,5.27
2019-06-01T14:24:42.069Z,5.30
2019-06-01T14:27:08.205Z,6.87
2019-06-01T14:29:38.320Z,6.60
2019-06-01T14:32:08.240Z,7.87
2019-06-01T14:34:38.241Z,6.00
2019-06-01T14:37:08.211Z,6.53
2019-06-01T14:39:38.039Z,5.50
2019-06-01T14:42:07.929Z,5.83
2019-06-01T14:44:37.805Z,5.80
2019-06-01T14:47:07.749Z,5.50
2019-06-01T14:49:37.624Z,23.30
2019-06-01T14:52:07.577Z,5.73
2019-06-01T14:54:37.547Z,9.27
2019-06-01T14:57:07.499Z,4.70
2019-06-01T14:59:37.472Z,6.90
2019-06-01T15:02:07.626Z,7.37
2019-06-01T15:04:37.498Z,5.13
2019-06-01T15:07:07.394Z,5.20
2019-06-01T15:09:37.203Z,22.83
2019-06-01T15:12:07.134Z,12.17
2019-06-01T15:14:37.075Z,11.50
2019-06-01T15:17:07.132Z,9.60
2019-06-01T15:19:37.023Z,10.07
2019-06-01T15:22:07.050Z,5.33
2019-06-01T15:24:36.910Z,7.67
2019-06-01T15:27:06.836Z,8.23
2019-06-01T15:29:38.249Z,7.70
2019-06-01T15:32:08.032Z,5.30
2019-06-01T15:34:37.886Z,6.27
2019-06-01T15:37:07.776Z,6.30
2019-06-01T15:39:37.792Z,5.30
2019-06-01T15:42:07.501Z,9.10
2019-06-01T15:44:37.281Z,18.30
2019-06-01T15:47:07.204Z,13.03
2019-06-01T15:49:37.027Z,6.23
2019-06-01T15:52:06.861Z,5.27
2019-06-01T15:54:36.758Z,6.03
2019-06-01T15:57:06.566Z,7.83
2019-06-01T15:59:36.435Z,10.00
2019-06-01T16:02:06.244Z,18.07
2019-06-01T16:04:36.196Z,6.20
2019-06-01T16:07:06.119Z,4.33
2019-06-01T16:09:42.528Z,26.97
2019-06-01T16:12:07.408Z,8.90
2019-06-01T16:14:37.269Z,6.40
2019-06-01T16:17:07.051Z,6.37
2019-06-01T16:19:36.999Z,14.00
2019-06-01T16:22:06.894Z,6.13
2019-06-01T16:24:36.805Z,6.63
2019-06-01T16:27:06.766Z,5.33
2019-06-01T16:29:36.657Z,7.53
2019-06-01T16:32:06.549Z,4.30
2019-06-01T16:34:36.353Z,5.43
2019-06-01T16:37:06.177Z,5.17
2019-06-01T16:39:36.089Z,5.37
2019-06-01T16:42:06.309Z,5.43
2019-06-01T16:44:36.456Z,4.70
2019-06-01T16:47:06.393Z,5.47
2019-06-01T16:49:36.247Z,4.93
2019-06-01T16:52:07.142Z,4.77
2019-06-01T16:54:37.354Z,16.57
2019-06-01T16:57:07.459Z,9.67
2019-06-01T16:59:37.493Z,8.20
2019-06-01T17:02:07.891Z,8.13
2019-06-01T17:04:38.233Z,7.80
2019-06-01T17:07:08.814Z,8.20
2019-06-01T17:09:38.991Z,7.73
2019-06-01T17:12:08.858Z,7.70
2019-06-01T17:14:38.746Z,8.87
2019-06-01T17:17:08.808Z,9.50
2019-06-01T17:19:38.772Z,9.53
2019-06-01T17:22:08.677Z,9.00
2019-06-01T17:24:38.660Z,8.17
2019-06-01T17:27:08.600Z,8.57
2019-06-01T17:29:38.541Z,8.73
2019-06-01T17:32:20.237Z,9.10
2019-06-01T17:34:40.398Z,10.00
2019-06-01T17:37:10.514Z,9.33
2019-06-01T17:39:40.507Z,9.00
2019-06-01T17:42:10.556Z,8.97
2019-06-01T17:44:40.520Z,8.93
2019-06-01T17:47:10.493Z,9.03
2019-06-01T17:49:40.480Z,8.63
2019-06-01T17:52:11.784Z,7.87
2019-06-01T17:54:42.167Z,9.17
2019-06-01T17:57:12.223Z,7.97
2019-06-01T18:06:46.841Z,9.30
2019-06-01T18:09:17.154Z,9.33
2019-06-01T18:11:47.089Z,8.63
2019-06-01T18:14:17.332Z,7.77
2019-06-01T18:16:47.327Z,9.13
2019-06-01T18:19:17.357Z,8.67
2019-06-01T18:21:47.343Z,7.73
2019-06-01T18:24:17.368Z,7.87
2019-06-01T18:26:47.960Z,7.60
2019-06-01T18:29:17.939Z,7.50
2019-06-01T18:31:47.985Z,8.37
2019-06-01T18:34:17.963Z,7.20
2019-06-01T18:36:48.147Z,7.80
2019-06-01T18:39:18.254Z,7.67
2019-06-01T18:41:48.873Z,8.77
2019-06-01T18:44:19.120Z,7.50
2019-06-01T18:46:49.066Z,8.40
2019-06-01T18:49:19.087Z,7.37
2019-06-01T18:51:49.042Z,7.20
2019-06-01T18:54:19.161Z,7.57
2019-06-01T18:56:49.091Z,9.73
2019-06-01T18:59:19.088Z,8.43
2019-06-01T19:01:52.982Z,7.70
2019-06-01T19:04:23.524Z,7.93
2019-06-01T19:06:54.557Z,8.43
2019-06-01T19:09:24.685Z,8.50
2019-06-01T19:11:54.701Z,9.07
2019-06-01T19:14:24.719Z,7.87
2019-06-01T19:16:56.267Z,9.27
2019-06-01T19:19:29.306Z,9.03
2019-06-01T19:22:00.242Z,9.17
2019-06-01T19:24:36.014Z,8.80
2019-06-01T19:27:06.731Z,9.57
2019-06-01T19:36:43.954Z,8.30
2019-06-01T19:39:15.233Z,8.37
2019-06-01T19:41:46.742Z,8.40
2019-06-01T19:47:31.646Z,6.97
2019-06-01T19:50:02.486Z,7.90
2019-06-01T19:52:32.730Z,7.13
2019-06-01T19:55:02.709Z,7.23
2019-06-01T19:57:32.920Z,6.60
2019-06-01T20:00:02.896Z,6.00
2019-06-01T20:02:34.219Z,5.93
2019-06-01T20:05:04.946Z,7.00
2019-06-01T20:07:34.895Z,5.73
2019-06-01T20:10:05.655Z,7.20
2019-06-01T20:12:36.005Z,7.03
2019-06-01T20:15:07.194Z,6.30
2019-06-01T20:17:38.023Z,5.60
2019-06-01T20:20:09.204Z,5.80
2019-06-01T20:22:40.033Z,6.10
2019-06-01T20:25:13.246Z,5.80
2019-06-01T20:27:43.471Z,5.43
2019-06-01T20:30:15.806Z,6.33
2019-06-01T20:32:46.143Z,6.47
2019-06-01T20:35:17.989Z,6.10
2019-06-01T20:37:49.662Z,6.57
2019-06-01T20:40:23.547Z,6.13
2019-06-01T20:42:53.709Z,6.07
2019-06-01T20:45:26.318Z,5.10
2019-06-01T20:47:56.726Z,6.97
2019-06-01T20:50:26.921Z,6.63
2019-06-01T20:52:57.021Z,6.97
2019-06-01T20:55:26.927Z,6.07
2019-06-01T20:57:57.235Z,5.53
2019-06-01T21:00:27.140Z,6.07
2019-06-01T21:02:57.411Z,6.37
2019-06-01T21:05:27.517Z,6.27
2019-06-01T21:07:57.792Z,6.60
2019-06-01T21:10:28.325Z,6.93
2019-06-01T21:12:58.330Z,6.97
2019-06-01T21:15:28.160Z,5.70
2019-06-01T21:17:58.150Z,6.50
2019-06-01T21:20:29.986Z,8.63
2019-06-01T21:22:59.554Z,6.60
2019-06-01T21:25:29.505Z,7.87
2019-06-01T21:27:59.475Z,7.70
2019-06-01T21:30:29.462Z,6.53
2019-06-01T21:32:59.335Z,6.27
2019-06-01T21:35:29.282Z,7.93
2019-06-01T21:37:59.098Z,7.00
2019-06-01T21:40:29.013Z,6.37
2019-06-01T21:43:07.214Z,7.33
2019-06-01T21:45:30.458Z,7.83
2019-06-01T21:48:00.434Z,10.57
2019-06-01T21:50:30.423Z,8.10
2019-06-01T21:53:00.292Z,8.03
2019-06-01T21:55:30.323Z,8.67
2019-06-01T21:58:00.211Z,8.20
2019-06-01T22:00:41.704Z,9.90
2019-06-01T22:03:11.803Z,9.17
2019-06-01T22:05:41.758Z,8.60
2019-06-01T22:08:11.768Z,10.23
2019-06-01T22:10:41.737Z,9.53
2019-06-01T22:13:18.774Z,9.93
2019-06-01T22:15:43.287Z,9.07
2019-06-01T22:18:13.247Z,8.20
2019-06-01T22:20:43.156Z,9.73
2019-06-01T22:23:13.067Z,10.97
2019-06-01T22:25:43.145Z,9.37
2019-06-01T22:28:13.163Z,8.73
2019-06-01T22:30:43.185Z,9.40
2019-06-01T22:33:13.048Z,8.97
2019-06-01T22:35:43.556Z,11.10
2019-06-01T22:38:13.446Z,10.93
2019-06-01T22:40:43.350Z,10.97
2019-06-01T22:43:13.771Z,9.30
2019-06-01T22:45:43.707Z,11.70
2019-06-01T22:48:13.719Z,9.00
2019-06-01T22:50:43.591Z,9.10
2019-06-01T22:53:16.505Z,8.40
2019-06-01T22:55:46.433Z,9.13
2019-06-01T22:58:16.652Z,9.37
2019-06-01T23:00:46.547Z,9.53
2019-06-01T23:03:16.501Z,8.57
2019-06-01T23:05:46.438Z,8.27
2019-06-01T23:08:16.360Z,9.83
2019-06-01T23:10:46.164Z,9.97
2019-06-01T23:13:16.122Z,8.90
2019-06-01T23:15:46.004Z,9.43
2019-06-01T23:18:15.921Z,10.50
2019-06-01T23:20:48.205Z,10.13
2019-06-01T23:23:18.285Z,9.27
2019-06-01T23:25:48.157Z,8.87
2019-06-01T23:28:18.094Z,10.20
2019-06-01T23:30:48.024Z,10.93
2019-06-01T23:33:17.817Z,9.30
2019-06-01T23:35:47.736Z,8.80
2019-06-01T23:38:17.760Z,7.97
2019-06-01T23:40:47.753Z,10.30
2019-06-01T23:43:17.645Z,8.07
2019-06-01T23:45:47.615Z,9.10
2019-06-01T23:48:17.567Z,7.87
2019-06-01T23:50:47.550Z,8.10
2019-06-01T23:53:17.477Z,9.67
2019-06-01T23:55:47.373Z,9.20
2019-06-01T23:58:17.306Z,8.37
